Time;durP1;ratioP1;P1;durP2;ratioP2;P2;SDS_P1;SDS_P2;PMS_P1;PMS_P2;Temp;Humidity;BMP_temperature;BMP_pressure;BME280_temperature;BME280_humidity;BME280_pressure;Samples;Min_cycle;Max_cycle;Signal;HPM_P1;HPM_P2
2022/02/08 00:00:10;;;;;;;86.30;29.52;;;;;;;0.72;76.99;97833.09;5045330;28;20049;-69
2022/02/08 00:02:44;;;;;;;88.40;31.00;;;;;;;0.72;76.70;97822.31;5041378;28;20056;-70
2022/02/08 00:05:13;;;;;;;85.43;30.05;;;;;;;0.72;76.70;97817.75;5041355;28;20056;-69
2022/02/08 00:07:39;;;;;;;91.72;31.52;;;;;;;0.69;76.88;97820.94;5044712;28;20128;-69
2022/02/08 00:10:06;;;;;;;88.75;29.85;;;;;;;0.63;77.01;97828.19;5035887;28;20053;-70
2022/02/08 00:12:32;;;;;;;82.55;30.20;;;;;;;0.64;76.85;97820.91;5041510;28;20067;-69
2022/02/08 00:14:58;;;;;;;89.28;30.92;;;;;;;0.68;76.97;97830.91;5040351;28;20049;-69
2022/02/08 00:17:24;;;;;;;84.63;31.55;;;;;;;0.69;77.10;97827.16;5033520;28;20045;-69
2022/02/08 00:19:52;;;;;;;84.30;29.63;;;;;;;0.69;77.10;97824.47;5045048;28;20433;-70
2022/02/08 00:22:18;;;;;;;91.07;31.73;;;;;;;0.72;77.21;97828.53;5044626;28;20705;-70
2022/02/08 00:24:44;;;;;;;86.38;31.52;;;;;;;0.73;77.35;97830.16;5046497;28;20068;-70
2022/02/08 00:27:10;;;;;;;88.18;32.40;;;;;;;0.72;77.15;97831.22;5038619;28;20058;-70
2022/02/08 00:29:36;;;;;;;96.28;32.95;;;;;;;0.73;77.23;97838.22;5043142;28;20063;-70
2022/02/08 00:32:06;;;;;;;91.65;31.70;;;;;;;0.68;77.33;97832.78;5041125;28;20452;-71
2022/02/08 00:34:32;;;;;;;92.40;30.83;;;;;;;0.70;77.35;97836.84;5046150;28;20045;-70
2022/02/08 00:37:00;;;;;;;92.38;31.33;;;;;;;0.71;77.44;97834.97;5058321;28;20416;-69
2022/02/08 00:39:30;;;;;;;90.25;31.85;;;;;;;0.72;77.53;97843.84;5044323;28;20486;-70
2022/02/08 00:42:04;;;;;;;98.30;31.92;;;;;;;0.72;77.46;97833.91;5042759;28;20420;-70
2022/02/08 00:44:39;;;;;;;82.05;31.45;;;;;;;0.69;77.66;97834.41;5044894;28;20049;-69
2022/02/08 00:49:43;;;;;;;90.47;30.23;;;;;;;0.65;78.02;97838.69;5059301;28;20051;-69
2022/02/08 00:52:16;;;;;;;86.38;31.48;;;;;;;0.51;78.24;97831.03;5040513;28;20049;-69
2022/02/08 00:54:42;;;;;;;91.07;32.72;;;;;;;0.53;78.05;97825.41;5024763;28;20409;-69
2022/02/08 00:57:09;;;;;;;91.68;31.33;;;;;;;0.54;78.74;97857.41;5041138;28;20052;-68
2022/02/08 00:59:35;;;;;;;77.20;29.50;;;;;;;0.64;78.70;97855.88;5047743;28;20079;-70
2022/02/08 01:02:05;;;;;;;94.63;32.45;;;;;;;0.71;78.34;97853.81;5063363;28;20041;-69
2022/02/08 01:04:31;;;;;;;88.60;29.33;;;;;;;0.67;78.53;97845.44;5040859;28;20122;-70
2022/02/08 01:06:59;;;;;;;;;;;;;;;0.72;78.65;97866.19;5040185;28;20160;-70
2022/02/08 01:12:04;;;;;;;81.45;29.73;;;;;;;0.71;78.47;97867.25;5061467;28;20048;-69
2022/02/08 01:14:36;;;;;;;74.50;26.73;;;;;;;0.69;78.60;97872.06;5037640;28;20049;-69
2022/02/08 01:17:03;;;;;;;89.55;28.45;;;;;;;0.68;78.83;97871.28;5041937;28;20048;-69
2022/02/08 01:19:29;;;;;;;74.43;26.80;;;;;;;0.69;78.92;97880.97;5042397;28;20133;-70
2022/02/08 01:21:55;;;;;;;70.18;29.08;;;;;;;0.64;79.13;97880.94;5040412;28;20076;-69
2022/02/08 01:24:22;;;;;;;72.80;27.77;;;;;;;0.73;78.98;97883.94;5032348;28;20132;-71
2022/02/08 01:26:59;;;;;;;73.43;28.10;;;;;;;0.76;78.82;97890.69;5039963;28;20055;-71
2022/02/08 01:32:32;;;;;;;74.63;26.60;;;;;;;0.74;79.02;97879.38;5040106;28;20100;-69
2022/02/08 01:35:26;;;;;;;70.40;27.15;;;;;;;0.79;78.89;97884.81;5039313;28;20122;-70
2022/02/08 01:38:03;;;;;;;70.10;27.05;;;;;;;0.71;79.08;97896.84;5047047;28;20057;-69
2022/02/08 01:48:15;;;;;;;58.50;24.08;;;;;;;0.84;78.80;97893.72;5040988;28;20060;-70
2022/02/08 01:50:42;;;;;;;61.65;24.55;;;;;;;0.85;78.65;97903.41;5066124;28;20053;-71
2022/02/08 01:53:10;;;;;;;62.83;25.23;;;;;;;0.81;78.88;97896.91;5042157;28;20041;-70
2022/02/08 01:55:39;;;;;;;56.75;23.92;;;;;;;0.82;79.00;97901.22;5037841;28;20124;-70
2022/02/08 01:58:07;;;;;;;60.03;22.90;;;;;;;0.79;79.14;97901.75;5033394;28;20478;-70
2022/02/08 02:00:33;;;;;;;51.05;22.27;;;;;;;0.69;78.97;97880.97;5038740;28;20128;-70
2022/02/08 02:03:01;;;;;;;57.08;23.33;;;;;;;0.85;79.06;97894.53;5044069;28;20052;-70
2022/02/08 02:05:33;;;;;;;49.88;21.05;;;;;;;0.87;79.04;97900.47;5058282;28;20057;-69
2022/02/08 02:07:59;;;;;;;51.28;21.05;;;;;;;0.81;79.22;97902.28;5064605;28;20049;-68
2022/02/08 02:10:28;;;;;;;54.05;21.88;;;;;;;0.80;79.29;97908.75;5047654;28;20044;-68
2022/02/08 02:12:59;;;;;;;51.72;20.88;;;;;;;0.82;79.33;97903.13;5051825;28;20461;-69
2022/02/08 02:15:33;;;;;;;48.65;21.95;;;;;;;0.83;79.51;97912.81;5036669;28;20152;-68
2022/02/08 02:17:59;;;;;;;46.65;20.30;;;;;;;0.91;79.09;97909.63;5066238;28;20053;-68
2022/02/08 02:20:29;;;;;;;48.23;21.67;;;;;;;0.92;79.02;97902.38;5048557;28;20064;-68
2022/02/08 02:22:56;;;;;;;46.20;20.58;;;;;;;0.94;79.08;97922.59;5060233;28;20049;-68
2022/02/08 02:25:25;;;;;;;44.83;21.15;;;;;;;0.95;79.05;97924.22;5037026;28;20450;-66
2022/02/08 02:27:54;;;;;;;42.90;19.33;;;;;;;0.98;78.70;97921.00;5036495;28;20099;-68
2022/02/08 02:30:22;;;;;;;44.80;20.17;;;;;;;0.99;78.70;97919.09;5041399;28;20570;-68
2022/02/08 02:32:51;;;;;;;49.63;19.23;;;;;;;0.94;78.82;97930.69;5038846;28;20049;-68
2022/02/08 02:35:17;;;;;;;43.63;19.47;;;;;;;0.93;79.03;97929.03;5049160;28;20123;-69
2022/02/08 02:37:44;;;;;;;49.03;19.33;;;;;;;0.83;79.06;97905.53;5038152;28;20136;-68
2022/02/08 02:40:13;;;;;;;44.30;19.67;;;;;;;0.87;78.98;97907.75;5065204;28;20080;-69
2022/02/08 02:42:41;;;;;;;54.95;20.23;;;;;;;1.00;78.82;97923.41;5068079;28;20131;-67
2022/02/08 02:45:09;;;;;;;43.83;18.35;;;;;;;1.00;79.07;97926.13;5042803;28;20057;-66
2022/02/08 02:47:37;;;;;;;41.58;19.25;;;;;;;0.97;79.14;97932.84;5013383;28;20048;-69
2022/02/08 02:50:09;;;;;;;40.70;18.17;;;;;;;0.97;79.11;97932.03;5047430;28;20041;-68
2022/02/08 02:52:37;;;;;;;47.97;18.60;;;;;;;0.93;79.25;97942.47;5062472;28;20033;-67
2022/02/08 02:55:04;;;;;;;36.72;17.02;;;;;;;0.92;79.55;97946.25;5042224;28;20050;-66
2022/02/08 02:57:30;;;;;;;36.42;17.35;;;;;;;0.88;80.04;97942.44;5058482;28;20076;-68
2022/02/08 03:00:09;;;;;;;34.10;16.27;;;;;;;0.94;79.95;97946.81;5059832;28;20049;-69
2022/02/08 03:18:41;;;;;;;33.60;15.23;;;;;;;1.02;79.49;97958.16;5032788;28;20421;-68
2022/02/08 03:21:09;;;;;;;33.42;15.13;;;;;;;0.92;79.53;97958.91;5017781;28;20335;-69
2022/02/08 03:23:36;;;;;;;34.05;15.77;;;;;;;1.00;79.52;97963.78;5049643;28;20083;-69
2022/02/08 03:26:04;;;;;;;31.88;15.27;;;;;;;1.02;79.46;97967.06;5034624;28;20053;-69
2022/02/08 03:28:35;;;;;;;37.08;15.57;;;;;;;1.01;79.66;97962.72;5036405;28;20497;-69
2022/02/08 03:31:04;;;;;;;29.90;15.50;;;;;;;1.02;79.34;97972.44;5044932;28;20052;-68
2022/02/08 03:33:33;;;;;;;30.27;14.32;;;;;;;1.01;79.52;97984.25;5056210;28;20095;-68
2022/02/08 03:36:01;;;;;;;29.55;14.73;;;;;;;0.92;79.72;97978.53;5044902;28;20092;-69
2022/02/08 03:38:37;;;;;;;31.13;15.65;;;;;;;1.01;79.53;97978.09;5049736;28;20056;-70
2022/02/08 03:41:08;;;;;;;30.27;14.35;;;;;;;0.94;79.78;97979.13;5031519;28;20127;-68
2022/02/08 03:43:37;;;;;;;36.00;16.03;;;;;;;1.03;79.49;97984.00;5038503;28;20045;-69
2022/02/08 03:46:13;;;;;;;30.08;14.15;;;;;;;1.13;79.40;97968.75;5048150;28;20044;-68
2022/02/08 03:48:42;;;;;;;30.77;14.73;;;;;;;1.19;78.80;97976.88;5041838;28;20045;-69
2022/02/08 03:51:20;;;;;;;31.15;13.95;;;;;;;1.13;78.93;97978.72;5039742;28;20051;-69
2022/02/08 03:54:01;;;;;;;28.20;14.50;;;;;;;1.22;78.72;97977.16;5033011;28;20041;-69
2022/02/08 03:56:31;;;;;;;32.55;14.77;;;;;;;1.24;78.43;97972.31;5039573;28;20132;-69
2022/02/08 03:59:01;;;;;;;34.35;14.35;;;;;;;1.16;78.53;97962.06;5059441;28;20041;-70
2022/02/08 04:06:56;;;;;;;33.65;14.50;;;;;;;1.27;78.30;97984.47;5042515;28;20052;-70
2022/02/08 04:09:22;;;;;;;26.63;12.75;;;;;;;1.25;78.60;97983.91;5042648;28;20045;-68
2022/02/08 04:12:09;;;;;;;31.52;13.65;;;;;;;1.15;78.35;97981.13;5045454;28;20079;-70
2022/02/08 04:14:59;;;;;;;26.08;12.45;;;;;;;1.20;78.57;97981.19;5034885;28;20075;-74
2022/02/08 04:41:46;;;;;;;29.92;11.93;;;;;;;1.26;77.61;98005.22;5039662;28;20105;-75
2022/02/08 04:46:48;;;;;;;30.27;12.32;;;;;;;1.21;77.70;98007.06;5039364;28;20505;-75
2022/02/08 04:49:17;;;;;;;23.95;11.50;;;;;;;1.04;77.86;97991.84;5040170;28;20045;-75
2022/02/08 04:51:54;;;;;;;23.00;12.45;;;;;;;1.13;77.71;98019.09;5045842;28;20128;-75
2022/02/08 05:44:57;;;;;;;28.17;14.07;;;;;;;1.33;77.05;98079.56;5044573;28;20560;-72
2022/02/08 05:47:24;;;;;;;31.67;13.73;;;;;;;1.35;77.10;98080.13;5044237;28;20601;-72
2022/02/08 05:50:07;;;;;;;32.15;13.00;;;;;;;1.32;76.95;98069.88;5068427;28;20131;-71
2022/02/08 05:52:50;;;;;;;24.70;12.63;;;;;;;1.28;77.19;98083.03;5053462;28;20044;-71
2022/02/08 05:55:17;;;;;;;29.17;14.38;;;;;;;1.27;77.13;98090.31;5046294;28;20504;-71
2022/02/08 05:57:45;;;;;;;33.88;14.20;;;;;;;1.31;76.98;98087.09;5046128;28;20136;-72
2022/02/08 06:00:12;;;;;;;;;;;;;;;1.35;77.03;98083.66;5045584;28;20042;-72
2022/02/08 06:02:50;;;;;;;31.25;13.05;;;;;;;1.34;76.82;98087.41;5069451;28;19986;-70
2022/02/08 06:05:23;;;;;;;30.48;13.50;;;;;;;1.35;76.80;98097.13;5017695;28;20077;-71
2022/02/08 06:07:49;;;;;;;32.40;13.60;;;;;;;1.34;76.58;98090.09;5039602;28;20053;-71
2022/02/08 06:10:18;;;;;;;24.65;12.27;;;;;;;1.35;76.77;98096.28;5050122;28;20071;-71
2022/02/08 06:12:45;;;;;;;28.83;13.55;;;;;;;1.30;76.67;98102.44;5034139;28;20050;-70
2022/02/08 06:15:19;;;;;;;27.27;13.10;;;;;;;1.28;76.94;98093.81;5047033;28;20037;-70
2022/02/08 06:17:46;;;;;;;29.80;13.00;;;;;;;1.34;76.51;98116.22;5051103;28;20453;-70
2022/02/08 06:20:13;;;;;;;31.33;12.60;;;;;;;1.31;76.63;98120.22;5054768;28;20056;-70
2022/02/08 06:22:44;;;;;;;29.73;12.73;;;;;;;1.30;76.78;98121.28;5069389;28;20331;-72
2022/02/08 06:25:13;;;;;;;24.77;13.00;;;;;;;1.32;76.62;98118.34;5073904;28;20433;-72
2022/02/08 06:27:41;;;;;;;28.40;13.02;;;;;;;1.21;76.79;98120.13;5056978;28;20144;-71
2022/02/08 06:30:09;;;;;;;28.65;12.65;;;;;;;1.26;76.71;98126.41;5062513;28;20562;-70
2022/02/08 06:32:36;;;;;;;31.40;13.52;;;;;;;1.19;76.54;98128.47;5062062;28;20041;-72
2022/02/08 06:35:08;;;;;;;30.35;12.88;;;;;;;1.22;76.82;98135.22;5035982;28;20065;-72
2022/02/08 06:37:37;;;;;;;27.83;12.35;;;;;;;1.24;76.70;98133.09;5044382;28;20049;-70
2022/02/08 06:40:05;;;;;;;25.10;11.80;;;;;;;1.24;76.58;98133.09;5059720;28;20049;-70
2022/02/08 06:42:31;;;;;;;22.48;12.40;;;;;;;1.32;76.29;98131.81;5042370;28;20144;-70
2022/02/08 06:44:58;;;;;;;25.88;12.40;;;;;;;1.35;76.13;98126.75;5038596;28;20049;-70
2022/02/08 06:47:24;;;;;;;;;;;;;;;1.28;76.12;98136.88;5048715;28;20043;-70
2022/02/08 06:49:51;;;;;;;30.42;12.80;;;;;;;1.33;75.92;98136.13;5047838;28;19940;-69
2022/02/08 06:52:18;;;;;;;25.88;12.35;;;;;;;1.29;75.92;98130.44;5051270;28;20069;-71
2022/02/08 06:54:44;;;;;;;28.58;10.73;;;;;;;1.31;75.68;98140.97;5043912;28;20144;-71
2022/02/08 06:57:10;;;;;;;25.35;11.63;;;;;;;1.24;75.68;98139.28;5043819;28;20049;-70
2022/02/08 06:59:38;;;;;;;27.40;11.27;;;;;;;1.30;75.36;98144.72;5049442;28;20135;-70
2022/02/08 07:02:07;;;;;;;26.52;12.13;;;;;;;1.25;75.27;98140.94;5038745;28;20041;-72
2022/02/08 07:04:33;;;;;;;29.40;11.30;;;;;;;1.27;74.91;98127.19;5044251;28;20056;-70
2022/02/08 07:06:59;;;;;;;24.10;11.35;;;;;;;1.32;74.88;98139.91;5040374;28;20522;-72
2022/02/08 07:09:25;;;;;;;23.45;11.55;;;;;;;1.27;74.75;98135.28;5035611;28;20388;-71
2022/02/08 07:11:51;;;;;;;21.58;10.52;;;;;;;1.30;74.74;98142.03;5041637;28;20045;-71
2022/02/08 07:14:17;;;;;;;24.10;10.80;;;;;;;1.36;74.47;98143.69;5035403;28;20049;-72
2022/02/08 07:16:45;;;;;;;24.27;10.27;;;;;;;1.31;74.39;98141.75;5047343;28;20044;-71
2022/02/08 07:19:12;;;;;;;19.08;8.95;;;;;;;1.35;73.95;98144.78;5049210;28;20544;-71
2022/02/08 07:21:38;;;;;;;21.23;8.98;;;;;;;1.26;73.42;98134.47;5040676;28;20084;-72
2022/02/08 07:24:05;;;;;;;16.50;7.85;;;;;;;1.30;72.79;98145.53;5041269;28;20041;-72
2022/02/08 07:26:32;;;;;;;19.48;8.43;;;;;;;1.31;71.54;98155.22;5050125;28;20060;-72
2022/02/08 07:28:58;;;;;;;19.65;7.50;;;;;;;1.31;71.37;98151.75;5055265;28;20072;-70
2022/02/08 07:31:33;;;;;;;21.33;7.35;;;;;;;1.38;70.85;98163.09;5010077;28;20052;-70
2022/02/08 07:34:11;;;;;;;30.63;6.60;;;;;;;1.39;70.67;98153.97;5045520;28;20044;-69
2022/02/08 07:39:21;;;;;;;16.63;6.18;;;;;;;1.34;69.33;98153.91;5041538;28;20048;-70
2022/02/08 07:41:47;;;;;;;20.80;6.10;;;;;;;1.43;68.94;98160.47;5041196;28;20044;-70
2022/02/08 07:44:14;;;;;;;16.10;5.57;;;;;;;1.36;68.81;98155.31;5043387;28;20506;-69
2022/02/08 07:46:52;;;;;;;16.15;5.40;;;;;;;1.44;68.36;98145.13;5045703;28;20048;-69
2022/02/08 07:49:18;;;;;;;14.77;5.10;;;;;;;1.42;67.88;98142.69;5045142;28;20139;-70
2022/02/08 07:51:46;;;;;;;13.40;4.68;;;;;;;1.50;67.52;98141.41;5055724;28;20532;-71
2022/02/08 07:54:12;;;;;;;12.43;4.60;;;;;;;1.48;67.26;98148.91;5047513;28;20048;-70
2022/02/08 07:56:38;;;;;;;13.63;4.70;;;;;;;1.47;67.09;98133.81;5044919;28;20053;-70
2022/02/08 07:59:04;;;;;;;11.85;4.75;;;;;;;1.51;66.91;98146.53;5043108;28;20047;-69
2022/02/08 08:01:30;;;;;;;14.68;5.35;;;;;;;1.46;66.78;98149.19;5038463;28;20045;-68
2022/02/08 08:03:57;;;;;;;15.20;5.38;;;;;;;1.47;66.78;98142.72;5035418;28;20041;-69
2022/02/08 08:06:24;;;;;;;16.85;5.90;;;;;;;1.45;66.95;98150.25;5040706;28;20057;-69
2022/02/08 08:08:52;;;;;;;15.52;5.45;;;;;;;1.48;67.00;98155.13;5041069;28;20103;-69
2022/02/08 08:11:22;;;;;;;16.60;5.40;;;;;;;1.45;67.01;98155.66;5061403;28;20416;-68
2022/02/08 08:13:52;;;;;;;21.10;6.60;;;;;;;1.56;67.28;98151.16;5044391;28;20045;-68
2022/02/08 08:18:56;;;;;;;23.17;5.85;;;;;;;1.52;67.45;98158.94;5046693;28;20532;-69
2022/02/08 08:21:23;;;;;;;13.35;6.25;;;;;;;1.49;67.61;98164.03;5047245;28;20697;-67
2022/02/08 08:23:49;;;;;;;42.72;7.05;;;;;;;1.55;67.53;98163.81;5039998;28;20055;-76
2022/02/08 08:26:16;;;;;;;31.27;6.88;;;;;;;1.59;67.29;98166.81;5037508;28;20435;-72
2022/02/08 08:28:42;;;;;;;21.90;7.53;;;;;;;1.53;67.55;98165.94;5047048;28;20060;-75
2022/02/08 08:31:08;;;;;;;17.58;7.43;;;;;;;1.49;67.69;98159.44;5043140;28;20567;-75
2022/02/08 08:33:35;;;;;;;21.58;8.23;;;;;;;1.53;67.83;98165.94;5040983;28;20132;-75
2022/02/08 08:36:01;;;;;;;20.35;7.07;;;;;;;1.50;68.19;98171.84;5059169;28;20118;-74
2022/02/08 08:38:30;;;;;;;15.75;7.18;;;;;;;1.55;67.93;98169.19;5042994;28;20513;-76
2022/02/08 08:51:46;;;;;;;17.45;6.38;;;;;;;1.58;67.86;98159.00;5035622;28;20049;-76
2022/02/08 08:54:13;;;;;;;17.73;6.22;;;;;;;1.49;67.80;98147.88;5055421;28;20048;-76
2022/02/08 08:56:41;;;;;;;15.73;6.00;;;;;;;1.53;68.06;98159.75;5043224;28;20512;-75
2022/02/08 08:59:10;;;;;;;16.25;5.70;;;;;;;1.50;68.17;98157.59;5039528;28;21055;-76
2022/02/08 09:01:37;;;;;;;17.40;6.22;;;;;;;1.61;68.07;98161.97;5045378;28;20052;-74
2022/02/08 09:04:04;;;;;;;16.92;7.03;;;;;;;1.62;67.94;98154.72;5043563;28;20459;-74
2022/02/08 09:06:33;;;;;;;15.65;6.60;;;;;;;1.51;67.97;98129.56;5045678;28;20103;-74
2022/02/08 09:08:59;;;;;;;20.83;5.78;;;;;;;1.68;67.64;98153.69;5047333;28;20041;-74
2022/02/08 09:29:21;;;;;;;16.13;5.50;;;;;;;1.86;67.02;98132.78;5034048;28;20045;-70
2022/02/08 09:31:58;;;;;;;14.02;5.75;;;;;;;1.84;66.96;98133.06;5032941;28;20056;-71
2022/02/08 09:34:24;;;;;;;14.48;5.90;;;;;;;1.88;66.79;98138.75;5033534;28;20048;-71
2022/02/08 09:36:51;;;;;;;14.25;5.22;;;;;;;1.86;66.76;98119.31;5047064;28;20128;-71
2022/02/08 09:39:17;;;;;;;18.15;5.68;;;;;;;1.90;66.68;98126.63;5046125;28;20053;-71
2022/02/08 09:41:43;;;;;;;15.07;5.45;;;;;;;1.93;66.66;98139.59;5041552;28;20136;-70
2022/02/08 09:44:11;;;;;;;17.52;5.43;;;;;;;1.93;66.43;98133.41;5050238;28;20164;-71
2022/02/08 09:46:38;;;;;;;;;;;;;;;1.96;66.46;98130.19;5045544;28;20132;-70
2022/02/08 09:49:06;;;;;;;17.23;5.95;;;;;;;1.92;66.59;98124.50;5049097;28;19947;-71
2022/02/08 09:51:34;;;;;;;20.60;6.53;;;;;;;1.89;66.80;98116.13;5043209;28;20053;-70
2022/02/08 09:54:03;;;;;;;15.95;6.68;;;;;;;1.90;66.71;98123.94;5049786;28;20048;-70
2022/02/08 09:56:29;;;;;;;16.00;6.20;;;;;;;1.97;66.92;98121.03;5048664;28;20115;-70
2022/02/08 09:58:55;;;;;;;19.25;7.68;;;;;;;1.95;66.91;98118.59;5048623;28;20041;-71
2022/02/08 10:01:24;;;;;;;16.73;6.40;;;;;;;1.99;66.75;98118.88;5034646;28;20164;-71
2022/02/08 10:03:52;;;;;;;15.80;5.90;;;;;;;2.00;66.70;98115.09;5044782;28;20052;-72
2022/02/08 10:06:20;;;;;;;18.02;6.20;;;;;;;1.91;66.94;98108.59;5041953;28;20471;-71
2022/02/08 10:08:45;;;;;;;;;;;;;;;1.94;66.79;98114.25;5043620;28;20060;-70
2022/02/08 10:11:13;;;;;;;17.25;5.55;;;;;;;1.98;66.56;98109.16;5049566;28;20324;-70
2022/02/08 10:14:00;;;;;;;18.13;5.03;;;;;;;1.95;66.33;98101.59;5038422;28;20048;-73
2022/02/08 10:19:49;;;;;;;12.85;5.43;;;;;;;1.95;66.34;98118.59;5049712;28;20049;-70
2022/02/08 10:22:09;;;;;;;17.00;5.88;;;;;;;1.95;66.31;98109.69;5047363;28;20045;-73
2022/02/08 10:24:46;;;;;;;15.38;5.63;;;;;;;1.95;66.23;98110.50;5050983;28;20102;-74
2022/02/08 10:27:26;;;;;;;20.55;6.18;;;;;;;1.94;66.54;98113.47;5051919;28;20152;-72
2022/02/08 10:38:00;;;;;;;15.85;6.20;;;;;;;2.10;66.13;98115.19;5043647;28;20539;-72
2022/02/08 10:40:26;;;;;;;15.07;5.78;;;;;;;2.09;66.17;98120.81;5050886;28;20041;-72
2022/02/08 10:42:55;;;;;;;16.58;5.90;;;;;;;2.04;66.38;98115.41;5042769;28;20048;-72
2022/02/08 10:45:24;;;;;;;14.57;5.78;;;;;;;2.08;66.16;98111.09;5051553;28;20184;-72
2022/02/08 10:47:55;;;;;;;15.80;5.65;;;;;;;2.06;65.85;98119.47;5040441;28;20425;-71
2022/02/08 10:50:22;;;;;;;13.68;5.38;;;;;;;1.96;66.20;98103.22;5052611;28;20062;-72
2022/02/08 10:52:49;;;;;;;14.60;5.55;;;;;;;1.98;66.09;98111.84;5043143;28;20444;-73
2022/02/08 10:55:27;;;;;;;16.73;5.82;;;;;;;2.03;66.15;98116.47;5065567;28;20048;-74
2022/02/08 10:58:41;;;;;;;14.80;5.45;;;;;;;2.04;65.89;98123.50;5049219;28;20057;-72
2022/02/08 11:00:58;;;;;;;11.50;4.82;;;;;;;2.05;65.86;98117.03;5041078;28;20103;-72
2022/02/08 11:03:31;;;;;;;16.75;5.28;;;;;;;2.07;65.64;98110.31;5042026;28;20049;-72
2022/02/08 11:06:16;;;;;;;12.88;5.40;;;;;;;2.10;65.63;98119.75;5043537;28;20053;-72
2022/02/08 11:19:38;;;;;;;12.20;3.80;;;;;;;2.01;65.09;98113.22;5058999;28;20123;-73
2022/02/08 11:22:23;;;;;;;17.38;4.38;;;;;;;2.08;64.78;98119.19;5046174;28;20059;-75
2022/02/08 11:24:58;;;;;;;16.38;4.55;;;;;;;1.99;64.81;98118.88;5007352;28;20049;-77
2022/02/08 11:27:36;;;;;;;12.05;4.10;;;;;;;1.52;64.92;98059.25;5048622;28;20049;-77
2022/02/08 11:30:14;;;;;;;10.55;3.72;;;;;;;2.01;64.87;98130.19;5047348;28;20056;-79
2022/02/08 11:49:26;;;;;;;10.38;3.60;;;;;;;1.75;65.51;98130.03;5050621;28;20052;-76
2022/02/08 11:52:18;;;;;;;9.02;3.00;;;;;;;1.83;65.60;98128.75;5050693;28;20076;-76
2022/02/08 12:08:02;;;;;;;9.32;3.10;;;;;;;1.77;65.83;98133.28;5006795;28;20040;-74
2022/02/08 12:10:41;;;;;;;9.45;3.20;;;;;;;1.68;65.48;98108.69;5039793;28;20131;-74
2022/02/08 12:54:29;;;;;;;8.93;3.20;;;;;;;1.82;66.22;98165.66;5042006;28;20064;-72
2022/02/08 13:00:07;;;;;;;10.32;3.45;;;;;;;1.83;66.00;98159.19;5038234;28;20053;-71
2022/02/08 14:19:31;;;;;;;11.98;2.90;;;;;;;1.60;66.08;98170.34;4974719;28;20054;-80
2022/02/08 14:22:17;;;;;;;9.32;3.00;;;;;;;1.60;66.02;98176.50;5033615;28;20119;-75
2022/02/08 14:25:02;;;;;;;12.20;3.25;;;;;;;1.50;65.93;98188.00;5033004;28;20049;-71
2022/02/08 14:30:30;;;;;;;7.35;2.50;;;;;;;1.42;65.90;98186.59;5048678;28;20057;-73
2022/02/08 14:57:38;;;;;;;14.55;3.17;;;;;;;1.33;66.28;98188.13;5038573;28;20060;-72
2022/02/08 14:58:35;;;;;;;8.77;2.90;;;;;;;1.45;66.05;98189.84;5049360;28;20044;-72
2022/02/08 15:06:33;;;;;;;6.13;2.38;;;;;;;1.41;66.10;98189.56;5042593;28;20462;-72
2022/02/08 15:08:56;;;;;;;8.52;2.35;;;;;;;1.31;66.05;98182.16;5043429;28;20048;-71
2022/02/08 15:11:29;;;;;;;8.88;2.65;;;;;;;1.26;66.61;98185.63;5044384;28;20059;-71
2022/02/08 15:13:59;;;;;;;9.15;2.63;;;;;;;1.35;66.32;98183.31;5037625;28;20049;-72
2022/02/08 15:16:29;;;;;;;7.05;2.38;;;;;;;1.18;66.53;98183.38;5036953;28;20102;-70
2022/02/08 15:18:56;;;;;;;8.07;2.28;;;;;;;1.29;66.44;98195.06;5041654;28;20037;-72
2022/02/08 15:21:28;;;;;;;7.72;2.40;;;;;;;1.34;66.42;98202.41;5041515;28;20048;-70
2022/02/08 15:23:54;;;;;;;7.10;2.53;;;;;;;1.10;66.70;98197.31;5033404;28;20102;-72
2022/02/08 15:26:20;;;;;;;10.48;2.20;;;;;;;1.05;66.90;98184.59;5046635;28;20045;-73
2022/02/08 15:28:47;;;;;;;7.43;2.17;;;;;;;1.20;66.41;98189.31;5046117;28;20068;-73
2022/02/08 15:31:15;;;;;;;8.35;2.38;;;;;;;1.13;66.55;98192.22;5051285;28;20049;-72
2022/02/08 15:33:42;;;;;;;5.35;2.20;;;;;;;1.18;66.61;98191.47;5044245;28;20155;-71
2022/02/08 15:36:09;;;;;;;7.20;2.17;;;;;;;1.33;66.41;98195.38;5038623;28;20075;-73
2022/02/08 15:38:37;;;;;;;11.70;3.80;;;;;;;1.36;66.22;98190.31;5064176;28;20512;-72
2022/02/08 15:41:03;;;;;;;10.50;2.88;;;;;;;1.34;66.77;98195.16;5045122;28;20079;-72
2022/02/08 15:43:29;;;;;;;7.45;2.55;;;;;;;1.21;67.07;98182.06;5060810;28;20075;-71
2022/02/08 15:48:23;;;;;;;7.13;2.83;;;;;;;1.20;67.78;98191.22;5039706;28;20069;-72
2022/02/08 15:54:08;;;;;;;9.60;3.10;;;;;;;1.21;68.18;98192.84;5040575;28;19925;-73
2022/02/08 15:56:41;;;;;;;9.05;2.97;;;;;;;1.26;68.11;98198.28;5041851;28;20500;-70
2022/02/08 16:22:24;;;;;;;12.60;3.17;;;;;;;0.66;71.92;98217.75;5038446;28;20041;-71
2022/02/08 16:59:08;;;;;;;8.60;2.30;;;;;;;0.50;71.45;98215.94;5038082;28;20218;-69
2022/02/08 17:01:36;;;;;;;11.57;2.53;;;;;;;0.43;71.55;98202.66;5041199;28;20068;-71
2022/02/08 17:04:05;;;;;;;;;;;;;;;0.50;71.42;98229.38;5047487;28;20049;-71
2022/02/08 17:06:31;;;;;;;12.77;3.10;;;;;;;0.59;70.74;98194.78;5041408;28;19925;-74
2022/02/08 17:11:55;;;;;;;7.25;2.50;;;;;;;0.71;70.21;98198.19;5062873;28;20049;-69
2022/02/08 17:47:03;;;;;;;6.53;2.25;;;;;;;0.90;67.53;98200.56;5049864;28;20520;-70
2022/02/08 17:49:29;;;;;;;9.60;2.47;;;;;;;0.95;67.35;98204.13;5037132;28;20453;-71
2022/02/08 17:51:55;;;;;;;5.90;1.85;;;;;;;0.95;67.52;98196.06;5047040;28;20049;-73
2022/02/08 17:54:21;;;;;;;4.93;1.80;;;;;;;0.91;67.13;98180.66;5043329;28;20050;-70
2022/02/08 17:56:47;;;;;;;6.00;1.98;;;;;;;0.92;67.45;98177.69;5044417;28;20377;-70
2022/02/08 17:59:17;;;;;;;7.85;1.70;;;;;;;0.90;67.61;98187.91;5040379;28;20059;-71
2022/02/08 18:01:43;;;;;;;6.20;1.80;;;;;;;1.00;67.34;98192.59;5037749;28;20041;-69
2022/02/08 18:04:10;;;;;;;5.32;1.80;;;;;;;1.01;67.12;98182.66;5026905;28;20049;-72
2022/02/08 18:06:36;;;;;;;5.38;1.75;;;;;;;0.97;67.22;98191.25;5045613;28;20147;-72
2022/02/08 18:09:05;;;;;;;5.82;2.08;;;;;;;0.81;67.51;98192.13;5067373;28;20053;-73
2022/02/08 18:12:04;;;;;;;8.23;2.30;;;;;;;0.60;68.34;98199.09;5041301;28;20041;-73
2022/02/08 18:14:35;;;;;;;3.60;1.60;;;;;;;0.78;68.09;98190.72;5028417;28;20075;-72
2022/02/08 18:17:15;;;;;;;7.75;2.20;;;;;;;0.88;67.41;98194.63;5032740;28;20057;-73
2022/02/08 18:19:49;;;;;;;7.13;2.40;;;;;;;0.69;67.88;98173.38;5031741;28;20059;-72
2022/02/08 19:03:41;;;;;;;6.20;2.17;;;;;;;0.83;67.13;98179.22;5065555;28;20055;-71
2022/02/08 19:14:27;;;;;;;10.43;2.67;;;;;;;0.89;66.99;98172.03;5048507;28;20177;-70
2022/02/08 19:21:44;;;;;;;6.22;2.10;;;;;;;0.89;66.68;98177.41;5046647;28;20047;-69
2022/02/08 19:24:10;;;;;;;6.60;1.70;;;;;;;0.86;66.25;98167.94;5027397;28;20122;-70
2022/02/08 19:26:36;;;;;;;5.70;1.90;;;;;;;0.88;66.51;98167.72;5044708;28;20045;-70
2022/02/08 19:29:03;;;;;;;5.82;1.90;;;;;;;0.85;66.49;98171.72;5046480;28;20056;-68
2022/02/08 19:31:29;;;;;;;7.78;2.40;;;;;;;1.00;65.75;98181.81;5046376;28;20037;-70
2022/02/08 19:33:56;;;;;;;11.13;2.47;;;;;;;0.95;65.90;98171.84;5062183;28;20106;-70
2022/02/08 19:36:23;;;;;;;7.75;2.30;;;;;;;0.87;66.20;98171.47;5043744;28;20057;-71
2022/02/08 19:38:49;;;;;;;10.48;2.53;;;;;;;0.91;66.27;98175.28;5043231;28;20045;-70
2022/02/08 19:41:18;;;;;;;7.90;2.65;;;;;;;0.98;66.20;98178.56;5045034;28;20040;-70
2022/02/08 19:43:44;;;;;;;8.32;2.85;;;;;;;0.77;66.48;98158.69;5044293;28;20154;-70
2022/02/08 19:46:10;;;;;;;8.38;2.88;;;;;;;0.90;66.52;98173.66;5047942;28;20130;-70
2022/02/08 19:48:36;;;;;;;10.48;3.00;;;;;;;0.84;66.80;98170.09;5044443;28;20604;-70
2022/02/08 19:51:02;;;;;;;8.75;3.28;;;;;;;0.87;66.66;98161.50;5045242;28;20060;-71
2022/02/08 19:53:32;;;;;;;8.85;3.42;;;;;;;0.92;66.74;98166.13;5044529;28;20057;-71
2022/02/08 19:58:34;;;;;;;9.30;3.35;;;;;;;0.97;66.84;98161.63;5043518;28;20096;-70
2022/02/08 20:01:07;;;;;;;8.38;2.92;;;;;;;0.75;67.64;98169.72;5029646;28;20081;-71
2022/02/08 20:03:41;;;;;;;8.45;2.72;;;;;;;0.76;67.48;98168.66;5039608;28;20479;-71
2022/02/08 20:06:08;;;;;;;10.50;3.00;;;;;;;0.81;67.76;98170.59;5037249;28;20056;-70
2022/02/08 20:08:36;;;;;;;11.27;4.07;;;;;;;0.84;67.65;98176.25;5050576;28;20525;-71
2022/02/08 20:11:03;;;;;;;9.80;3.65;;;;;;;0.91;67.42;98165.31;5045603;28;20456;-70
2022/02/08 20:13:29;;;;;;;11.25;4.25;;;;;;;0.94;67.08;98167.53;5041756;28;20477;-71